sensor_id;sensor_type;location;lat;lon;timestamp;pressure;altitude;pressure_sealevel;temperature;humidity
9521;BME280;4798;41.574;23.734;2024-03-17T00:01:18;95527.38;;;12.34;93.70
9521;BME280;4798;41.574;23.734;2024-03-17T00:03:46;95577.16;;;12.67;94.13
9521;BME280;4798;41.574;23.734;2024-03-17T00:06:12;95563.50;;;12.84;94.68
9521;BME280;4798;41.574;23.734;2024-03-17T00:08:41;95568.53;;;12.86;94.00
9521;BME280;4798;41.574;23.734;2024-03-17T00:11:08;95575.06;;;12.64;96.06
9521;BME280;4798;41.574;23.734;2024-03-17T00:13:35;95570.44;;;12.75;94.68
9521;BME280;4798;41.574;23.734;2024-03-17T00:16:03;95564.75;;;12.92;92.14
9521;BME280;4798;41.574;23.734;2024-03-17T00:18:30;95567.72;;;12.90;92.26
9521;BME280;4798;41.574;23.734;2024-03-17T00:20:57;95558.91;;;12.95;92.07
9521;BME280;4798;41.574;23.734;2024-03-17T00:23:25;95560.16;;;12.63;94.34
9521;BME280;4798;41.574;23.734;2024-03-17T00:25:54;95559.81;;;12.75;93.35
9521;BME280;4798;41.574;23.734;2024-03-17T00:28:22;95557.09;;;12.85;93.29
9521;BME280;4798;41.574;23.734;2024-03-17T00:30:49;95561.00;;;12.98;91.30
9521;BME280;4798;41.574;23.734;2024-03-17T00:33:17;95559.22;;;12.83;92.34
9521;BME280;4798;41.574;23.734;2024-03-17T00:35:45;95555.81;;;12.77;92.82
9521;BME280;4798;41.574;23.734;2024-03-17T00:38:12;95545.47;;;12.76;92.42
9521;BME280;4798;41.574;23.734;2024-03-17T00:40:39;95554.72;;;12.84;93.44
9521;BME280;4798;41.574;23.734;2024-03-17T00:43:09;95547.53;;;12.84;93.99
9521;BME280;4798;41.574;23.734;2024-03-17T00:45:37;95551.28;;;12.78;95.13
9521;BME280;4798;41.574;23.734;2024-03-17T00:48:05;95501.28;;;12.41;95.25
9521;BME280;4798;41.574;23.734;2024-03-17T00:50:32;95532.09;;;12.42;98.47
9521;BME280;4798;41.574;23.734;2024-03-17T00:53:00;95551.72;;;12.56;98.97
9521;BME280;4798;41.574;23.734;2024-03-17T00:55:29;95554.56;;;12.65;98.32
9521;BME280;4798;41.574;23.734;2024-03-17T00:57:56;95554.88;;;12.58;99.42
9521;BME280;4798;41.574;23.734;2024-03-17T01:00:24;95481.50;;;12.19;98.13
9521;BME280;4798;41.574;23.734;2024-03-17T01:02:52;95536.91;;;12.40;99.86
9521;BME280;4798;41.574;23.734;2024-03-17T01:05:19;95556.47;;;12.59;98.71
9521;BME280;4798;41.574;23.734;2024-03-17T01:07:47;95521.81;;;12.31;99.41
9521;BME280;4798;41.574;23.734;2024-03-17T01:10:14;95540.78;;;12.14;100.00
9521;BME280;4798;41.574;23.734;2024-03-17T01:12:42;95498.78;;;11.42;100.00
9521;BME280;4798;41.574;23.734;2024-03-17T01:15:09;95560.03;;;11.81;100.00
9521;BME280;4798;41.574;23.734;2024-03-17T01:17:38;95556.53;;;11.95;100.00
9521;BME280;4798;41.574;23.734;2024-03-17T01:20:06;95545.56;;;12.07;100.00
9521;BME280;4798;41.574;23.734;2024-03-17T01:22:34;95553.44;;;12.27;100.00
9521;BME280;4798;41.574;23.734;2024-03-17T01:25:00;95559.13;;;12.10;100.00
9521;BME280;4798;41.574;23.734;2024-03-17T01:27:28;95549.34;;;11.96;100.00
9521;BME280;4798;41.574;23.734;2024-03-17T01:29:55;95501.34;;;11.77;100.00
9521;BME280;4798;41.574;23.734;2024-03-17T01:32:22;95555.09;;;12.18;100.00
9521;BME280;4798;41.574;23.734;2024-03-17T01:34:50;95553.81;;;12.10;100.00
9521;BME280;4798;41.574;23.734;2024-03-17T01:37:18;95551.19;;;12.05;100.00
9521;BME280;4798;41.574;23.734;2024-03-17T01:39:44;95557.41;;;11.76;100.00
9521;BME280;4798;41.574;23.734;2024-03-17T01:42:12;95562.72;;;11.76;100.00
9521;BME280;4798;41.574;23.734;2024-03-17T01:44:38;95493.97;;;11.54;100.00
9521;BME280;4798;41.574;23.734;2024-03-17T01:47:07;95565.25;;;12.06;100.00
9521;BME280;4798;41.574;23.734;2024-03-17T01:49:35;95554.06;;;12.14;100.00
9521;BME280;4798;41.574;23.734;2024-03-17T01:52:03;95551.06;;;12.26;100.00
9521;BME280;4798;41.574;23.734;2024-03-17T01:54:32;95549.25;;;12.21;100.00
9521;BME280;4798;41.574;23.734;2024-03-17T01:56:58;95556.63;;;12.34;100.00
9521;BME280;4798;41.574;23.734;2024-03-17T01:59:26;95543.34;;;12.34;100.00
9521;BME280;4798;41.574;23.734;2024-03-17T02:01:52;95540.09;;;12.37;100.00
9521;BME280;4798;41.574;23.734;2024-03-17T02:04:20;95543.34;;;12.34;100.00
9521;BME280;4798;41.574;23.734;2024-03-17T02:06:48;95518.47;;;12.10;100.00
9521;BME280;4798;41.574;23.734;2024-03-17T02:09:17;95537.00;;;12.25;100.00
9521;BME280;4798;41.574;23.734;2024-03-17T02:11:44;95543.88;;;12.31;100.00
9521;BME280;4798;41.574;23.734;2024-03-17T02:14:12;95539.88;;;12.34;100.00
9521;BME280;4798;41.574;23.734;2024-03-17T02:16:40;95538.00;;;12.39;100.00
9521;BME280;4798;41.574;23.734;2024-03-17T02:19:08;95530.91;;;12.20;100.00
9521;BME280;4798;41.574;23.734;2024-03-17T02:21:34;95536.00;;;12.16;100.00
9521;BME280;4798;41.574;23.734;2024-03-17T02:24:05;95516.94;;;11.99;100.00
9521;BME280;4798;41.574;23.734;2024-03-17T02:26:32;95536.53;;;12.13;100.00
9521;BME280;4798;41.574;23.734;2024-03-17T02:29:01;95530.94;;;12.09;100.00
9521;BME280;4798;41.574;23.734;2024-03-17T02:31:27;95525.06;;;12.18;100.00
9521;BME280;4798;41.574;23.734;2024-03-17T02:33:54;95536.19;;;12.25;100.00
9521;BME280;4798;41.574;23.734;2024-03-17T02:36:21;95522.69;;;12.21;100.00
9521;BME280;4798;41.574;23.734;2024-03-17T02:38:48;95535.44;;;12.19;100.00
9521;BME280;4798;41.574;23.734;2024-03-17T02:41:35;95519.25;;;12.16;100.00
9521;BME280;4798;41.574;23.734;2024-03-17T02:44:02;95503.63;;;12.04;100.00
9521;BME280;4798;41.574;23.734;2024-03-17T02:46:30;95527.44;;;12.24;100.00
9521;BME280;4798;41.574;23.734;2024-03-17T02:48:57;95537.88;;;12.10;100.00
9521;BME280;4798;41.574;23.734;2024-03-17T02:51:25;95537.66;;;11.97;100.00
9521;BME280;4798;41.574;23.734;2024-03-17T02:53:51;95502.69;;;11.75;100.00
9521;BME280;4798;41.574;23.734;2024-03-17T02:56:19;95531.53;;;12.01;100.00
9521;BME280;4798;41.574;23.734;2024-03-17T02:58:48;95532.28;;;12.07;100.00
9521;BME280;4798;41.574;23.734;2024-03-17T03:01:17;95546.34;;;12.13;100.00
9521;BME280;4798;41.574;23.734;2024-03-17T03:03:45;95536.25;;;12.15;100.00
9521;BME280;4798;41.574;23.734;2024-03-17T03:06:13;95508.22;;;11.88;100.00
9521;BME280;4798;41.574;23.734;2024-03-17T03:08:41;95532.94;;;11.84;100.00
9521;BME280;4798;41.574;23.734;2024-03-17T03:11:10;95527.66;;;11.59;100.00
9521;BME280;4798;41.574;23.734;2024-03-17T03:13:39;95531.13;;;11.49;100.00
9521;BME280;4798;41.574;23.734;2024-03-17T03:16:08;95519.72;;;11.54;100.00
9521;BME280;4798;41.574;23.734;2024-03-17T03:18:37;95526.34;;;11.66;100.00
9521;BME280;4798;41.574;23.734;2024-03-17T03:21:05;95524.19;;;11.83;100.00
9521;BME280;4798;41.574;23.734;2024-03-17T03:23:33;95514.06;;;11.90;100.00
9521;BME280;4798;41.574;23.734;2024-03-17T03:26:02;95528.28;;;12.15;100.00
9521;BME280;4798;41.574;23.734;2024-03-17T03:28:31;95479.06;;;11.78;100.00
9521;BME280;4798;41.574;23.734;2024-03-17T03:30:59;95534.94;;;12.12;100.00
9521;BME280;4798;41.574;23.734;2024-03-17T03:33:29;95510.59;;;11.90;100.00
9521;BME280;4798;41.574;23.734;2024-03-17T03:35:57;95520.63;;;12.03;100.00
9521;BME280;4798;41.574;23.734;2024-03-17T03:38:24;95526.72;;;12.08;100.00
9521;BME280;4798;41.574;23.734;2024-03-17T03:40:52;95530.78;;;11.91;100.00
9521;BME280;4798;41.574;23.734;2024-03-17T03:43:19;95533.13;;;11.97;100.00
9521;BME280;4798;41.574;23.734;2024-03-17T03:45:47;95532.56;;;12.10;100.00
9521;BME280;4798;41.574;23.734;2024-03-17T03:48:14;95537.59;;;12.12;100.00
9521;BME280;4798;41.574;23.734;2024-03-17T03:50:43;95540.22;;;12.17;100.00
9521;BME280;4798;41.574;23.734;2024-03-17T03:53:11;95544.94;;;12.30;98.53
9521;BME280;4798;41.574;23.734;2024-03-17T03:55:38;95544.69;;;12.32;95.21
9521;BME280;4798;41.574;23.734;2024-03-17T03:58:06;95545.44;;;12.32;94.57
9521;BME280;4798;41.574;23.734;2024-03-17T04:00:33;95545.78;;;12.21;95.50
9521;BME280;4798;41.574;23.734;2024-03-17T04:03:01;95549.78;;;12.18;95.15
9521;BME280;4798;41.574;23.734;2024-03-17T04:05:29;95546.06;;;12.19;94.51
9521;BME280;4798;41.574;23.734;2024-03-17T04:07:58;95543.41;;;12.19;93.03
9521;BME280;4798;41.574;23.734;2024-03-17T04:10:26;95545.00;;;12.15;93.79
9521;BME280;4798;41.574;23.734;2024-03-17T04:12:53;95549.00;;;12.13;94.04
9521;BME280;4798;41.574;23.734;2024-03-17T04:15:21;95551.94;;;12.16;94.78
9521;BME280;4798;41.574;23.734;2024-03-17T04:17:49;95553.50;;;12.17;94.62
9521;BME280;4798;41.574;23.734;2024-03-17T04:20:18;95544.22;;;12.09;94.13
9521;BME280;4798;41.574;23.734;2024-03-17T04:22:46;95557.50;;;12.15;95.39
9521;BME280;4798;41.574;23.734;2024-03-17T04:25:15;95551.44;;;12.09;94.91
9521;BME280;4798;41.574;23.734;2024-03-17T04:27:44;95561.50;;;12.12;94.39
9521;BME280;4798;41.574;23.734;2024-03-17T04:30:12;95568.41;;;12.13;94.00
9521;BME280;4798;41.574;23.734;2024-03-17T04:32:40;95563.63;;;12.10;94.63
9521;BME280;4798;41.574;23.734;2024-03-17T04:35:07;95558.38;;;12.00;94.88
9521;BME280;4798;41.574;23.734;2024-03-17T04:37:34;95572.72;;;12.04;94.74
9521;BME280;4798;41.574;23.734;2024-03-17T04:40:06;95574.06;;;12.01;94.31
9521;BME280;4798;41.574;23.734;2024-03-17T04:42:38;95575.38;;;11.99;93.75
9521;BME280;4798;41.574;23.734;2024-03-17T04:45:07;95573.22;;;12.06;94.15
9521;BME280;4798;41.574;23.734;2024-03-17T04:47:36;95574.06;;;12.01;94.36
9521;BME280;4798;41.574;23.734;2024-03-17T04:50:05;95535.63;;;11.64;94.86
9521;BME280;4798;41.574;23.734;2024-03-17T04:52:33;95579.91;;;11.93;95.91
9521;BME280;4798;41.574;23.734;2024-03-17T04:55:00;95587.88;;;11.93;95.21
9521;BME280;4798;41.574;23.734;2024-03-17T04:57:27;95584.97;;;11.90;95.43
9521;BME280;4798;41.574;23.734;2024-03-17T04:59:56;95589.75;;;11.88;94.81
9521;BME280;4798;41.574;23.734;2024-03-17T05:02:23;95585.50;;;11.87;94.88
9521;BME280;4798;41.574;23.734;2024-03-17T05:04:51;95585.78;;;11.85;95.16
9521;BME280;4798;41.574;23.734;2024-03-17T05:07:19;95591.91;;;11.81;95.22
9521;BME280;4798;41.574;23.734;2024-03-17T05:09:46;95578.63;;;11.66;96.70
9521;BME280;4798;41.574;23.734;2024-03-17T05:12:15;95591.38;;;11.54;100.00
9521;BME280;4798;41.574;23.734;2024-03-17T05:14:43;95617.69;;;11.40;100.00
9521;BME280;4798;41.574;23.734;2024-03-17T05:17:12;95589.81;;;11.32;100.00
9521;BME280;4798;41.574;23.734;2024-03-17T05:19:40;95596.16;;;11.46;100.00
9521;BME280;4798;41.574;23.734;2024-03-17T05:22:08;95597.25;;;11.45;100.00
9521;BME280;4798;41.574;23.734;2024-03-17T05:24:36;95602.56;;;11.30;100.00
9521;BME280;4798;41.574;23.734;2024-03-17T05:27:04;95606.28;;;11.24;100.00
9521;BME280;4798;41.574;23.734;2024-03-17T05:29:31;95612.63;;;11.54;100.00
9521;BME280;4798;41.574;23.734;2024-03-17T05:32:02;95611.03;;;11.73;100.00
9521;BME280;4798;41.574;23.734;2024-03-17T05:34:31;95573.56;;;11.64;100.00
9521;BME280;4798;41.574;23.734;2024-03-17T05:37:00;95599.03;;;11.90;100.00
9521;BME280;4798;41.574;23.734;2024-03-17T05:39:27;95613.88;;;12.12;100.00
9521;BME280;4798;41.574;23.734;2024-03-17T05:41:55;95596.63;;;12.04;100.00
9521;BME280;4798;41.574;23.734;2024-03-17T05:44:22;95606.97;;;12.00;100.00
9521;BME280;4798;41.574;23.734;2024-03-17T05:46:50;95607.94;;;12.25;100.00
9521;BME280;4798;41.574;23.734;2024-03-17T05:49:19;95605.03;;;12.26;100.00
9521;BME280;4798;41.574;23.734;2024-03-17T05:51:49;95602.88;;;12.28;100.00
9521;BME280;4798;41.574;23.734;2024-03-17T05:54:16;95538.75;;;11.91;100.00
9521;BME280;4798;41.574;23.734;2024-03-17T05:56:44;95603.88;;;12.42;100.00
9521;BME280;4798;41.574;23.734;2024-03-17T05:59:11;95610.47;;;12.50;100.00
9521;BME280;4798;41.574;23.734;2024-03-17T06:01:39;95608.34;;;12.57;98.27
9521;BME280;4798;41.574;23.734;2024-03-17T06:04:06;95610.25;;;12.46;100.00
9521;BME280;4798;41.574;23.734;2024-03-17T06:06:35;95599.88;;;12.45;99.45
9521;BME280;4798;41.574;23.734;2024-03-17T06:09:04;95611.75;;;12.62;98.83
9521;BME280;4798;41.574;23.734;2024-03-17T06:11:35;95610.88;;;12.77;97.54
9521;BME280;4798;41.574;23.734;2024-03-17T06:14:02;95602.66;;;12.73;96.99
9521;BME280;4798;41.574;23.734;2024-03-17T06:16:32;95617.78;;;12.78;97.68
9521;BME280;4798;41.574;23.734;2024-03-17T06:18:59;95620.09;;;12.95;97.12
9521;BME280;4798;41.574;23.734;2024-03-17T06:21:27;95610.66;;;13.17;93.80
9521;BME280;4798;41.574;23.734;2024-03-17T06:23:54;95614.88;;;13.52;93.21
9521;BME280;4798;41.574;23.734;2024-03-17T06:26:24;95609.69;;;13.66;91.18
9521;BME280;4798;41.574;23.734;2024-03-17T06:28:52;95626.41;;;13.71;90.25
9521;BME280;4798;41.574;23.734;2024-03-17T06:31:20;95622.75;;;14.15;86.18
9521;BME280;4798;41.574;23.734;2024-03-17T06:33:48;95609.81;;;14.32;83.82
9521;BME280;4798;41.574;23.734;2024-03-17T06:36:15;95626.06;;;14.73;82.36
9521;BME280;4798;41.574;23.734;2024-03-17T06:38:43;95625.00;;;15.11;81.56
9521;BME280;4798;41.574;23.734;2024-03-17T06:41:11;95624.81;;;15.07;79.13
9521;BME280;4798;41.574;23.734;2024-03-17T06:43:42;95622.47;;;15.01;78.74
9521;BME280;4798;41.574;23.734;2024-03-17T06:46:10;95585.84;;;15.06;78.12
9521;BME280;4798;41.574;23.734;2024-03-17T06:48:38;95638.03;;;15.68;77.28
9521;BME280;4798;41.574;23.734;2024-03-17T06:51:05;95641.66;;;15.91;74.64
9521;BME280;4798;41.574;23.734;2024-03-17T06:53:33;95638.09;;;15.96;74.49
9521;BME280;4798;41.574;23.734;2024-03-17T06:56:00;95644.25;;;16.50;72.29
9521;BME280;4798;41.574;23.734;2024-03-17T06:58:28;95644.94;;;16.83;69.83
9521;BME280;4798;41.574;23.734;2024-03-17T07:00:58;95641.66;;;17.00;68.53
9521;BME280;4798;41.574;23.734;2024-03-17T07:03:27;95631.34;;;16.93;67.93
9521;BME280;4798;41.574;23.734;2024-03-17T07:05:57;95638.63;;;16.66;68.50
9521;BME280;4798;41.574;23.734;2024-03-17T07:08:25;95632.88;;;16.59;68.97
9521;BME280;4798;41.574;23.734;2024-03-17T07:10:57;95638.00;;;17.18;68.56
9521;BME280;4798;41.574;23.734;2024-03-17T07:13:25;95618.25;;;16.92;66.37
9521;BME280;4798;41.574;23.734;2024-03-17T07:15:53;95632.84;;;17.22;65.88
9521;BME280;4798;41.574;23.734;2024-03-17T07:18:22;95632.38;;;18.17;63.12
9521;BME280;4798;41.574;23.734;2024-03-17T07:20:51;95629.94;;;17.98;61.54
9521;BME280;4798;41.574;23.734;2024-03-17T07:23:19;95607.72;;;18.46;60.49
9521;BME280;4798;41.574;23.734;2024-03-17T07:25:53;95614.22;;;18.53;61.00
9521;BME280;4798;41.574;23.734;2024-03-17T07:28:22;95600.44;;;17.76;60.33
9521;BME280;4798;41.574;23.734;2024-03-17T07:30:50;95628.66;;;17.29;61.71
9521;BME280;4798;41.574;23.734;2024-03-17T07:33:19;95624.84;;;16.59;63.86
9521;BME280;4798;41.574;23.734;2024-03-17T07:35:50;95630.59;;;16.38;65.59
9521;BME280;4798;41.574;23.734;2024-03-17T07:38:18;95621.66;;;16.84;66.21
9521;BME280;4798;41.574;23.734;2024-03-17T07:40:55;95617.09;;;16.57;66.35
9521;BME280;4798;41.574;23.734;2024-03-17T07:43:23;95625.03;;;16.21;66.64
9521;BME280;4798;41.574;23.734;2024-03-17T07:45:59;95616.78;;;17.44;64.15
9521;BME280;4798;41.574;23.734;2024-03-17T07:48:27;95595.69;;;18.04;61.37
9521;BME280;4798;41.574;23.734;2024-03-17T07:50:57;95613.66;;;18.90;60.55
9521;BME280;4798;41.574;23.734;2024-03-17T07:53:24;95609.91;;;19.60;56.89
9521;BME280;4798;41.574;23.734;2024-03-17T07:56:00;95607.13;;;20.03;54.90
9521;BME280;4798;41.574;23.734;2024-03-17T07:58:27;95603.13;;;20.17;54.78
9521;BME280;4798;41.574;23.734;2024-03-17T08:00:58;95604.41;;;20.49;54.44
9521;BME280;4798;41.574;23.734;2024-03-17T08:03:27;95604.91;;;19.96;53.21
9521;BME280;4798;41.574;23.734;2024-03-17T08:05:56;95439.28;;;18.77;53.81
9521;BME280;4798;41.574;23.734;2024-03-17T08:08:24;95598.84;;;20.83;51.69
9521;BME280;4798;41.574;23.734;2024-03-17T08:10:52;95589.25;;;20.45;50.85
9521;BME280;4798;41.574;23.734;2024-03-17T08:13:20;95598.88;;;20.75;52.28
9521;BME280;4798;41.574;23.734;2024-03-17T08:15:55;95587.78;;;21.06;50.64
9521;BME280;4798;41.574;23.734;2024-03-17T08:18:23;95568.59;;;21.07;49.06
9521;BME280;4798;41.574;23.734;2024-03-17T08:20:51;95586.75;;;21.51;48.06
9521;BME280;4798;41.574;23.734;2024-03-17T08:23:21;95576.97;;;21.80;48.99
9521;BME280;4798;41.574;23.734;2024-03-17T08:25:52;95572.47;;;21.84;47.88
9521;BME280;4798;41.574;23.734;2024-03-17T08:28:21;95572.56;;;22.32;47.98
9521;BME280;4798;41.574;23.734;2024-03-17T08:30:52;95571.44;;;22.94;45.65
9521;BME280;4798;41.574;23.734;2024-03-17T08:33:20;95568.81;;;23.09;45.00
9521;BME280;4798;41.574;23.734;2024-03-17T08:35:53;95562.81;;;22.64;44.25
9521;BME280;4798;41.574;23.734;2024-03-17T08:38:23;95563.25;;;23.18;44.09
9521;BME280;4798;41.574;23.734;2024-03-17T08:40:51;95556.72;;;24.33;42.44
9521;BME280;4798;41.574;23.734;2024-03-17T08:43:18;95549.44;;;23.90;41.28
9521;BME280;4798;41.574;23.734;2024-03-17T08:45:54;95541.81;;;23.96;41.09
9521;BME280;4798;41.574;23.734;2024-03-17T08:48:25;95545.34;;;24.12;42.80
9521;BME280;4798;41.574;23.734;2024-03-17T08:50:53;95547.53;;;24.38;40.64
9521;BME280;4798;41.574;23.734;2024-03-17T08:53:22;95544.78;;;24.69;38.37
9521;BME280;4798;41.574;23.734;2024-03-17T08:55:51;95537.63;;;23.98;40.33
9521;BME280;4798;41.574;23.734;2024-03-17T08:58:18;95506.63;;;24.27;38.63
9521;BME280;4798;41.574;23.734;2024-03-17T09:00:46;95528.25;;;25.09;37.02
9521;BME280;4798;41.574;23.734;2024-03-17T09:03:13;95520.97;;;25.32;39.07
9521;BME280;4798;41.574;23.734;2024-03-17T09:05:42;95523.22;;;25.68;37.86
9521;BME280;4798;41.574;23.734;2024-03-17T09:08:15;95502.59;;;25.45;37.45
9521;BME280;4798;41.574;23.734;2024-03-17T09:10:44;95507.56;;;25.81;36.98
9521;BME280;4798;41.574;23.734;2024-03-17T09:13:13;95515.19;;;25.95;37.41
9521;BME280;4798;41.574;23.734;2024-03-17T09:15:49;95501.69;;;26.21;35.69
9521;BME280;4798;41.574;23.734;2024-03-17T09:18:17;95501.97;;;26.38;36.90
9521;BME280;4798;41.574;23.734;2024-03-17T09:20:45;95498.94;;;26.43;34.51
9521;BME280;4798;41.574;23.734;2024-03-17T09:23:13;95495.06;;;25.99;35.11
9521;BME280;4798;41.574;23.734;2024-03-17T09:25:40;95495.63;;;24.86;33.94
9521;BME280;4798;41.574;23.734;2024-03-17T09:28:09;95488.63;;;23.72;36.25
9521;BME280;4798;41.574;23.734;2024-03-17T09:30:38;95475.44;;;24.33;35.23
9521;BME280;4798;41.574;23.734;2024-03-17T09:33:06;95437.22;;;24.92;35.08
9521;BME280;4798;41.574;23.734;2024-03-17T09:35:33;95472.22;;;23.96;37.31
9521;BME280;4798;41.574;23.734;2024-03-17T09:38:01;95478.13;;;24.84;34.64
9521;BME280;4798;41.574;23.734;2024-03-17T09:40:30;95470.25;;;25.55;32.92
9521;BME280;4798;41.574;23.734;2024-03-17T09:42:58;95426.63;;;25.90;32.12
9521;BME280;4798;41.574;23.734;2024-03-17T09:45:27;95468.50;;;26.61;32.74
9521;BME280;4798;41.574;23.734;2024-03-17T09:47:56;95459.34;;;25.97;33.71
9521;BME280;4798;41.574;23.734;2024-03-17T09:50:25;95446.09;;;27.00;31.87
9521;BME280;4798;41.574;23.734;2024-03-17T09:52:53;95458.78;;;27.93;30.55
9521;BME280;4798;41.574;23.734;2024-03-17T09:55:21;95461.03;;;25.60;32.16
9521;BME280;4798;41.574;23.734;2024-03-17T09:57:49;95454.56;;;25.68;33.09
9521;BME280;4798;41.574;23.734;2024-03-17T10:00:17;95462.50;;;24.27;34.13
9521;BME280;4798;41.574;23.734;2024-03-17T10:02:47;95452.72;;;23.91;34.17
9521;BME280;4798;41.574;23.734;2024-03-17T10:05:19;95391.63;;;23.00;34.58
9521;BME280;4798;41.574;23.734;2024-03-17T10:07:47;95460.53;;;22.26;37.10
9521;BME280;4798;41.574;23.734;2024-03-17T10:10:16;95465.81;;;22.87;36.48
9521;BME280;4798;41.574;23.734;2024-03-17T10:12:44;95445.09;;;22.27;36.94
9521;BME280;4798;41.574;23.734;2024-03-17T10:15:16;95445.00;;;21.87;37.87
9521;BME280;4798;41.574;23.734;2024-03-17T10:17:44;95383.16;;;21.58;37.85
9521;BME280;4798;41.574;23.734;2024-03-17T10:20:15;95434.84;;;21.72;38.92
9521;BME280;4798;41.574;23.734;2024-03-17T10:23:03;95406.06;;;20.74;39.95
9521;BME280;4798;41.574;23.734;2024-03-17T10:25:32;95438.53;;;20.36;40.67
9521;BME280;4798;41.574;23.734;2024-03-17T10:28:01;95447.31;;;20.24;40.88
9521;BME280;4798;41.574;23.734;2024-03-17T10:30:28;95443.84;;;19.86;42.19
9521;BME280;4798;41.574;23.734;2024-03-17T10:32:58;95442.97;;;19.74;41.32
9521;BME280;4798;41.574;23.734;2024-03-17T10:35:34;95447.78;;;19.59;41.24
9521;BME280;4798;41.574;23.734;2024-03-17T10:38:06;95439.50;;;20.32;39.83
9521;BME280;4798;41.574;23.734;2024-03-17T10:40:34;95418.31;;;20.01;40.12
9521;BME280;4798;41.574;23.734;2024-03-17T10:43:05;95434.31;;;19.97;41.13
9521;BME280;4798;41.574;23.734;2024-03-17T10:45:34;95391.97;;;19.56;42.97
9521;BME280;4798;41.574;23.734;2024-03-17T10:48:06;95430.06;;;20.25;42.49
9521;BME280;4798;41.574;23.734;2024-03-17T10:50:37;95433.38;;;20.22;40.65
9521;BME280;4798;41.574;23.734;2024-03-17T10:53:06;95437.09;;;19.80;42.86
9521;BME280;4798;41.574;23.734;2024-03-17T10:55:43;95433.16;;;19.40;42.67
9521;BME280;4798;41.574;23.734;2024-03-17T10:58:22;95430.97;;;19.25;41.78
9521;BME280;4798;41.574;23.734;2024-03-17T11:00:51;95430.69;;;19.64;41.65
9521;BME280;4798;41.574;23.734;2024-03-17T11:03:19;95410.16;;;18.96;42.93
9521;BME280;4798;41.574;23.734;2024-03-17T11:05:52;95435.72;;;19.11;42.73
9521;BME280;4798;41.574;23.734;2024-03-17T11:08:22;95417.88;;;19.15;42.80
9521;BME280;4798;41.574;23.734;2024-03-17T11:10:50;95426.44;;;18.91;42.68
9521;BME280;4798;41.574;23.734;2024-03-17T11:13:24;95414.75;;;19.04;42.76
9521;BME280;4798;41.574;23.734;2024-03-17T11:15:52;95396.16;;;18.82;42.22
9521;BME280;4798;41.574;23.734;2024-03-17T11:18:42;95404.84;;;19.25;42.58
9521;BME280;4798;41.574;23.734;2024-03-17T11:21:28;95411.47;;;18.38;43.36
9521;BME280;4798;41.574;23.734;2024-03-17T11:23:57;95408.47;;;18.40;43.52
9521;BME280;4798;41.574;23.734;2024-03-17T11:26:30;95410.00;;;19.01;43.25
9521;BME280;4798;41.574;23.734;2024-03-17T11:28:58;95397.09;;;18.69;42.75
9521;BME280;4798;41.574;23.734;2024-03-17T11:31:41;95399.44;;;18.87;43.49
9521;BME280;4798;41.574;23.734;2024-03-17T11:34:32;95397.75;;;18.66;44.14
9521;BME280;4798;41.574;23.734;2024-03-17T11:37:03;95403.28;;;18.61;44.06
9521;BME280;4798;41.574;23.734;2024-03-17T11:39:51;95402.44;;;18.94;45.01
9521;BME280;4798;41.574;23.734;2024-03-17T11:42:22;95398.16;;;18.93;43.75
9521;BME280;4798;41.574;23.734;2024-03-17T11:45:04;95385.41;;;18.82;43.43
9521;BME280;4798;41.574;23.734;2024-03-17T11:47:36;95389.31;;;19.01;42.67
9521;BME280;4798;41.574;23.734;2024-03-17T11:50:05;95328.09;;;19.16;42.33
9521;BME280;4798;41.574;23.734;2024-03-17T11:52:34;95391.00;;;19.61;43.31
9521;BME280;4798;41.574;23.734;2024-03-17T11:55:02;95387.28;;;19.36;42.22
9521;BME280;4798;41.574;23.734;2024-03-17T11:57:29;95378.78;;;19.26;42.38
9521;BME280;4798;41.574;23.734;2024-03-17T11:59:56;95375.94;;;19.39;41.83
9521;BME280;4798;41.574;23.734;2024-03-17T12:02:25;95378.00;;;19.92;41.40
9521;BME280;4798;41.574;23.734;2024-03-17T12:04:54;95369.69;;;19.85;42.32
9521;BME280;4798;41.574;23.734;2024-03-17T12:07:21;95295.06;;;19.53;41.89
9521;BME280;4798;41.574;23.734;2024-03-17T12:09:52;95369.78;;;19.89;42.79
9521;BME280;4798;41.574;23.734;2024-03-17T12:12:21;95364.84;;;19.41;42.83
9521;BME280;4798;41.574;23.734;2024-03-17T12:14:50;95361.53;;;19.73;42.59
9521;BME280;4798;41.574;23.734;2024-03-17T12:17:21;95349.06;;;19.89;41.61
9521;BME280;4798;41.574;23.734;2024-03-17T12:19:48;95354.50;;;20.31;40.71
9521;BME280;4798;41.574;23.734;2024-03-17T12:22:17;95346.16;;;20.77;40.08
9521;BME280;4798;41.574;23.734;2024-03-17T12:24:48;95350.19;;;20.83;40.00
9521;BME280;4798;41.574;23.734;2024-03-17T12:27:18;95355.75;;;20.66;40.03
9521;BME280;4798;41.574;23.734;2024-03-17T12:29:47;95089.69;;;19.25;40.45
9521;BME280;4798;41.574;23.734;2024-03-17T12:32:15;95342.56;;;21.54;39.39
9521;BME280;4798;41.574;23.734;2024-03-17T12:34:43;95342.66;;;22.06;38.02
9521;BME280;4798;41.574;23.734;2024-03-17T12:37:16;95343.91;;;21.24;38.11
9521;BME280;4798;41.574;23.734;2024-03-17T12:39:44;95339.53;;;21.31;38.29
9521;BME280;4798;41.574;23.734;2024-03-17T12:42:12;95327.72;;;21.12;38.73
9521;BME280;4798;41.574;23.734;2024-03-17T12:44:48;95342.19;;;20.42;38.85
9521;BME280;4798;41.574;23.734;2024-03-17T12:47:17;95289.63;;;19.82;38.66
9521;BME280;4798;41.574;23.734;2024-03-17T12:49:47;95337.97;;;20.53;38.99
9521;BME280;4798;41.574;23.734;2024-03-17T12:52:18;95341.63;;;20.36;39.61
9521;BME280;4798;41.574;23.734;2024-03-17T12:54:56;95339.03;;;20.72;39.64
9521;BME280;4798;41.574;23.734;2024-03-17T12:57:46;95336.94;;;21.23;39.11
9521;BME280;4798;41.574;23.734;2024-03-17T13:00:33;95334.13;;;21.80;37.66
9521;BME280;4798;41.574;23.734;2024-03-17T13:03:01;95337.53;;;21.52;37.35
9521;BME280;4798;41.574;23.734;2024-03-17T13:05:29;95336.41;;;22.57;36.69
9521;BME280;4798;41.574;23.734;2024-03-17T13:07:58;95264.31;;;21.66;37.77
9521;BME280;4798;41.574;23.734;2024-03-17T13:10:26;95343.81;;;21.57;39.29
9521;BME280;4798;41.574;23.734;2024-03-17T13:13:00;95344.03;;;21.39;37.50
9521;BME280;4798;41.574;23.734;2024-03-17T13:15:29;95350.44;;;20.90;39.28
9521;BME280;4798;41.574;23.734;2024-03-17T13:17:59;95346.06;;;20.98;39.10